Time;durP1;ratioP1;P1;durP2;ratioP2;P2;SDS_P1;SDS_P2;PMS_P1;PMS_P2;Temp;Humidity;BMP_temperature;BMP_pressure;BME280_temperature;BME280_humidity;BME280_pressure;Samples;Min_cycle;Max_cycle;Signal;HPM_P1;HPM_P2
2023/08/15 00:01:44;;;;;;;7.10;6.70;;;;;;;20.79;100.00;100801.31;6200967;23;20035;-68
2023/08/15 00:04:10;;;;;;;8.07;7.47;;;;;;;20.90;100.00;100809.16;6203407;23;20114;-69
2023/08/15 00:06:37;;;;;;;7.13;6.60;;;;;;;20.88;100.00;100811.13;6198913;23;20089;-69
2023/08/15 00:09:03;;;;;;;7.20;6.53;;;;;;;20.82;100.00;100801.03;6199577;23;20449;-69
2023/08/15 00:11:30;;;;;;;7.13;6.70;;;;;;;19.87;100.00;100640.97;6174328;23;20552;-68
2023/08/15 00:13:56;;;;;;;7.43;6.80;;;;;;;19.70;100.00;100615.00;6171439;23;20591;-68
2023/08/15 00:16:23;;;;;;;7.18;6.75;;;;;;;20.69;100.00;100791.53;6200327;23;20066;-69
2023/08/15 00:18:50;;;;;;;7.72;7.22;;;;;;;20.59;100.00;100781.88;6182438;23;20035;-70
2023/08/15 00:21:17;;;;;;;7.10;6.60;;;;;;;20.43;100.00;100753.94;6199402;23;20102;-69
2023/08/15 00:23:43;;;;;;;7.43;6.72;;;;;;;19.67;100.00;100639.28;6198728;23;20551;-69
2023/08/15 00:26:10;;;;;;;7.35;6.68;;;;;;;20.27;100.00;100745.69;6173696;23;20084;-70
2023/08/15 00:28:36;;;;;;;7.20;6.60;;;;;;;19.63;100.00;100638.72;6172313;23;20607;-69
2023/08/15 00:31:03;;;;;;;7.10;6.60;;;;;;;20.74;100.00;100807.09;6174866;23;20027;-70
2023/08/15 00:33:29;;;;;;;6.85;6.38;;;;;;;20.70;100.00;100814.53;6201077;23;20028;-70
2023/08/15 00:35:56;;;;;;;7.63;7.00;;;;;;;20.44;100.00;100776.94;6171787;23;20901;-70
2023/08/15 00:38:22;;;;;;;7.60;6.60;;;;;;;19.73;100.00;100657.38;6169877;23;21777;-69
2023/08/15 00:40:49;;;;;;;7.47;6.88;;;;;;;20.80;100.00;100819.00;6195019;23;20095;-70
2023/08/15 00:43:17;;;;;;;7.40;6.60;;;;;;;19.86;100.00;100651.75;6170945;23;20021;-70
2023/08/15 00:45:44;;;;;;;7.13;6.63;;;;;;;19.89;100.00;100657.66;6205695;23;20012;-70
2023/08/15 00:48:11;;;;;;;7.10;6.60;;;;;;;20.88;100.00;100829.81;6197769;23;20012;-70
2023/08/15 00:50:41;;;;;;;6.75;6.35;;;;;;;20.75;100.00;100790.13;6202791;23;20102;-70
2023/08/15 00:53:09;;;;;;;7.38;6.60;;;;;;;20.02;100.00;100668.00;6209982;23;20494;-71
2023/08/15 00:55:36;;;;;;;7.10;6.28;;;;;;;21.05;100.00;100810.38;6179696;23;20058;-70
2023/08/15 00:58:03;;;;;;;6.90;6.40;;;;;;;20.98;100.00;100782.59;6204265;23;20088;-71
2023/08/15 01:00:30;;;;;;;6.95;6.40;;;;;;;20.91;100.00;100771.66;6176608;23;20105;-70
2023/08/15 01:02:56;;;;;;;6.88;6.47;;;;;;;19.65;100.00;100570.19;6208122;23;20016;-70
2023/08/15 01:05:24;;;;;;;7.60;7.00;;;;;;;20.47;100.00;100718.00;6181276;23;20112;-70
2023/08/15 01:07:51;;;;;;;7.10;6.70;;;;;;;20.77;100.00;100769.47;6202052;23;20423;-71
2023/08/15 01:10:18;;;;;;;8.10;7.30;;;;;;;19.60;100.00;100582.22;6206109;23;20490;-70
2023/08/15 01:13:10;;;;;;;9.85;7.28;;;;;;;19.42;100.00;100574.13;6203473;23;20030;-71
2023/08/15 01:15:41;;;;;;;7.28;6.60;;;;;;;20.58;100.00;100770.31;6183976;23;20083;-69
2023/08/15 01:18:12;;;;;;;7.53;6.85;;;;;;;20.52;100.00;100768.22;6207428;23;20032;-69
2023/08/15 01:20:39;;;;;;;8.68;7.88;;;;;;;20.54;100.00;100774.25;6179944;23;20706;-69
2023/08/15 01:23:58;;;;;;;12.07;11.27;;;;;;;20.52;100.00;100784.22;6180484;23;20054;-69
2023/08/15 01:26:35;;;;;;;8.05;7.53;;;;;;;20.32;100.00;100744.25;6160784;23;20024;-71
2023/08/15 01:29:01;;;;;;;8.20;7.60;;;;;;;19.62;100.00;100628.19;6175693;23;20094;-68
2023/08/15 01:31:46;;;;;;;8.23;7.50;;;;;;;19.52;100.00;100629.06;6180686;23;20052;-71
2023/08/15 01:34:20;;;;;;;7.57;7.07;;;;;;;20.34;100.00;100760.09;6158746;23;20024;-69
2023/08/15 01:36:52;;;;;;;7.05;6.65;;;;;;;20.40;100.00;100774.69;6205228;23;20048;-68
2023/08/15 01:39:24;;;;;;;8.15;7.32;;;;;;;20.67;100.00;100804.16;6176652;23;20035;-68
2023/08/15 01:41:53;;;;;;;9.48;7.57;;;;;;;20.47;100.00;100765.16;6176947;23;20030;-69
2023/08/15 01:44:21;;;;;;;7.63;7.13;;;;;;;20.37;100.00;100757.16;6173327;23;20012;-69
2023/08/15 01:46:48;;;;;;;7.65;6.95;;;;;;;20.45;100.00;100785.78;6205614;23;20091;-68
2023/08/15 01:49:14;;;;;;;8.50;7.80;;;;;;;20.19;100.00;100751.72;6176953;23;20030;-68
2023/08/15 01:51:42;;;;;;;8.15;7.55;;;;;;;20.45;100.00;100793.78;6208731;23;20080;-69
2023/08/15 01:54:08;;;;;;;7.60;7.07;;;;;;;20.40;100.00;100778.19;6203590;23;20024;-69
2023/08/15 01:56:35;;;;;;;8.52;7.72;;;;;;;19.80;100.00;100677.13;6176077;23;20268;-68
2023/08/15 01:59:01;;;;;;;8.27;7.47;;;;;;;19.69;100.00;100666.59;6180924;23;20024;-69
2023/08/15 02:01:27;;;;;;;7.32;6.82;;;;;;;20.74;100.00;100836.41;6197190;23;20103;-68
2023/08/15 02:03:54;;;;;;;7.75;7.15;;;;;;;20.39;100.00;100794.34;6173658;23;20032;-69
2023/08/15 02:06:21;;;;;;;9.05;8.43;;;;;;;20.74;100.00;100839.09;6205212;23;20099;-69
2023/08/15 02:08:47;;;;;;;8.25;7.53;;;;;;;20.87;100.00;100839.63;6180173;23;20446;-68
2023/08/15 02:11:13;;;;;;;7.88;7.38;;;;;;;20.74;100.00;100830.25;6207116;23;20631;-70
2023/08/15 02:13:40;;;;;;;8.13;7.53;;;;;;;20.81;100.00;100837.53;6178145;23;20033;-72
2023/08/15 02:16:06;;;;;;;8.07;7.57;;;;;;;20.97;100.00;100844.09;6207182;23;20051;-69
2023/08/15 02:18:33;;;;;;;8.02;7.43;;;;;;;20.95;100.00;100830.94;6159373;23;20024;-69
2023/08/15 02:20:59;;;;;;;8.60;7.90;;;;;;;20.97;100.00;100833.41;6188323;23;20024;-69
2023/08/15 02:23:26;;;;;;;8.05;7.45;;;;;;;20.16;100.00;100712.00;6178051;23;20651;-69
2023/08/15 02:25:52;;;;;;;8.75;7.95;;;;;;;20.87;100.00;100817.47;6204876;23;20435;-69
2023/08/15 02:28:19;;;;;;;7.55;7.05;;;;;;;20.97;100.00;100847.63;6204203;23;20537;-69
2023/08/15 02:30:46;;;;;;;7.78;7.18;;;;;;;20.87;100.00;100847.66;6203016;23;20754;-69
2023/08/15 02:33:13;;;;;;;7.80;7.22;;;;;;;19.91;100.00;100682.31;6172116;23;20720;-69
2023/08/15 02:35:40;;;;;;;7.38;6.85;;;;;;;20.18;100.00;100733.19;6176555;23;20760;-69
2023/08/15 02:38:08;;;;;;;7.38;6.78;;;;;;;20.92;100.00;100852.53;6179378;23;20046;-69
2023/08/15 02:40:34;;;;;;;7.00;6.60;;;;;;;20.82;100.00;100841.88;6197107;23;20032;-70
2023/08/15 02:43:01;;;;;;;7.50;6.90;;;;;;;20.81;100.00;100839.38;6170981;23;20487;-69
2023/08/15 02:45:27;;;;;;;7.22;6.70;;;;;;;19.89;100.00;100686.13;6204218;23;20469;-68
2023/08/15 02:47:54;;;;;;;11.48;7.22;;;;;;;20.86;100.00;100840.59;6172552;23;20088;-68
2023/08/15 02:50:20;;;;;;;7.80;7.20;;;;;;;20.82;100.00;100827.72;6179124;23;20040;-68
2023/08/15 02:52:47;;;;;;;6.97;6.50;;;;;;;20.48;100.00;100773.00;6171583;23;20394;-68
2023/08/15 02:55:14;;;;;;;7.70;7.20;;;;;;;19.92;100.00;100696.47;6177036;23;20989;-68
2023/08/15 02:57:40;;;;;;;7.05;6.53;;;;;;;20.60;100.00;100842.19;6203499;23;20105;-69
2023/08/15 03:00:08;;;;;;;7.15;6.65;;;;;;;20.75;100.00;100861.25;6154290;23;20020;-69
2023/08/15 03:02:34;;;;;;;6.85;6.35;;;;;;;19.99;100.00;100776.69;6204792;23;20043;-69
2023/08/15 03:05:01;;;;;;;8.25;7.28;;;;;;;20.71;100.00;100882.91;6177072;23;20028;-69
2023/08/15 03:07:27;;;;;;;7.60;6.28;;;;;;;19.71;100.00;100725.91;6173263;23;20130;-69
2023/08/15 03:09:54;;;;;;;7.20;6.70;;;;;;;19.73;100.00;100746.09;6186653;23;20029;-69
2023/08/15 03:12:20;;;;;;;7.00;6.50;;;;;;;20.60;100.00;100888.38;6180556;23;20075;-69
2023/08/15 03:14:47;;;;;;;7.70;6.88;;;;;;;19.31;100.00;100684.22;6173248;23;20051;-69
2023/08/15 03:17:13;;;;;;;7.93;6.93;;;;;;;20.68;100.00;100901.84;6203715;23;20091;-69
2023/08/15 03:19:40;;;;;;;7.35;6.80;;;;;;;20.60;100.00;100880.38;6147863;23;20414;-69
2023/08/15 03:22:07;;;;;;;7.50;6.80;;;;;;;20.15;100.00;100814.25;6203807;23;20055;-69
2023/08/15 03:24:33;;;;;;;6.97;6.47;;;;;;;20.64;100.00;100889.78;6171909;23;20047;-69
2023/08/15 03:27:00;;;;;;;7.43;6.90;;;;;;;19.46;100.00;100690.78;6199402;23;20026;-69
2023/08/15 03:29:29;;;;;;;7.43;6.82;;;;;;;20.63;100.00;100858.75;6203017;23;20024;-69
2023/08/15 03:31:58;;;;;;;7.47;6.97;;;;;;;20.63;100.00;100837.44;6204396;23;20023;-69
2023/08/15 03:34:25;;;;;;;7.32;6.57;;;;;;;20.63;100.00;100848.09;6179478;23;20529;-69
2023/08/15 03:36:51;;;;;;;8.93;6.57;;;;;;;20.62;100.00;100845.56;6178763;23;20041;-69
2023/08/15 03:39:18;;;;;;;7.07;6.50;;;;;;;20.45;100.00;100810.63;6176880;23;20055;-69
2023/08/15 03:41:45;;;;;;;7.50;6.90;;;;;;;20.56;100.00;100841.59;6181551;23;20099;-69
2023/08/15 03:44:11;;;;;;;7.60;6.95;;;;;;;20.42;100.00;100797.56;6201452;23;20533;-69
2023/08/15 03:46:40;;;;;;;7.40;6.80;;;;;;;20.45;100.00;100834.59;6173618;23;20095;-70
2023/08/15 03:49:07;;;;;;;7.70;7.10;;;;;;;20.13;100.00;100806.41;6201543;23;20020;-69
2023/08/15 03:51:34;;;;;;;7.40;6.80;;;;;;;20.30;100.00;100842.16;6200404;23;20505;-69
2023/08/15 03:54:12;;;;;;;7.60;7.05;;;;;;;19.32;100.00;100691.19;6178899;23;20035;-69
2023/08/15 03:56:38;;;;;;;6.90;6.50;;;;;;;20.31;100.00;100859.84;6205124;23;20854;-69
2023/08/15 03:59:05;;;;;;;7.75;6.90;;;;;;;20.05;100.00;100827.56;6174665;23;20091;-69
2023/08/15 04:01:32;;;;;;;6.75;6.10;;;;;;;20.09;100.00;100860.94;6199536;23;20116;-69
2023/08/15 04:03:59;;;;;;;7.82;7.13;;;;;;;20.22;100.00;100883.81;6195594;23;20040;-69
2023/08/15 04:06:25;;;;;;;8.00;6.85;;;;;;;20.21;100.00;100882.16;6178217;23;20039;-70
2023/08/15 04:08:52;;;;;;;7.57;6.97;;;;;;;19.95;100.00;100852.53;6170782;23;20473;-68
2023/08/15 04:11:19;;;;;;;7.88;7.28;;;;;;;20.06;100.00;100900.34;6204059;23;20027;-69
2023/08/15 04:13:48;;;;;;;7.57;6.97;;;;;;;19.98;100.00;100909.00;6151935;23;20031;-69
2023/08/15 04:16:15;;;;;;;10.02;7.50;;;;;;;19.27;100.00;100810.53;6184884;23;20107;-69
2023/08/15 04:18:41;;;;;;;7.65;7.10;;;;;;;19.11;100.00;100800.38;6171856;23;20163;-69
2023/08/15 04:21:10;;;;;;;8.15;7.18;;;;;;;20.14;100.00;100959.13;6177741;23;20102;-69
2023/08/15 04:23:37;;;;;;;9.25;7.30;;;;;;;20.02;100.00;100933.56;6198727;23;20118;-69
2023/08/15 04:26:03;;;;;;;7.65;6.82;;;;;;;20.17;100.00;100969.53;6173711;23;20053;-71
2023/08/15 04:28:30;;;;;;;7.43;6.82;;;;;;;19.42;100.00;100851.75;6200382;23;20084;-68
2023/08/15 04:30:56;;;;;;;7.60;7.03;;;;;;;20.26;100.00;100982.00;6180256;23;20099;-68
2023/08/15 04:33:23;;;;;;;8.10;7.40;;;;;;;20.17;100.00;100990.00;6170321;23;20024;-69
2023/08/15 04:35:49;;;;;;;7.38;6.68;;;;;;;20.24;100.00;101002.63;6198675;23;20056;-68
2023/08/15 04:38:16;;;;;;;7.70;7.10;;;;;;;20.23;100.00;101013.44;6200247;23;20095;-69
2023/08/15 04:40:43;;;;;;;7.35;6.75;;;;;;;19.49;100.00;100882.19;6172071;23;20529;-69
2023/08/15 04:43:10;;;;;;;7.43;6.90;;;;;;;19.93;100.00;100964.53;6196139;23;20004;-69
2023/08/15 04:45:46;;;;;;;7.72;6.97;;;;;;;20.18;100.00;101000.50;6202459;23;20106;-69
2023/08/15 04:48:13;;;;;;;8.18;7.47;;;;;;;19.97;100.00;100973.09;6173901;23;20020;-69
2023/08/15 04:50:40;;;;;;;7.50;6.93;;;;;;;19.83;100.00;100935.19;6199964;23;20218;-69
2023/08/15 04:53:06;;;;;;;7.43;6.90;;;;;;;20.16;100.00;100990.97;6169349;23;20036;-69
2023/08/15 04:55:34;;;;;;;7.13;6.63;;;;;;;19.89;100.00;100957.78;6202670;23;20642;-69
2023/08/15 04:58:02;;;;;;;8.15;6.80;;;;;;;19.85;100.00;100943.88;6200655;23;20457;-69
2023/08/15 05:00:28;;;;;;;8.02;7.20;;;;;;;20.11;100.00;100981.56;6203693;23;20052;-69
2023/08/15 05:02:59;;;;;;;8.40;7.70;;;;;;;20.11;100.00;100978.06;6198357;23;20073;-69
2023/08/15 05:05:25;;;;;;;7.80;7.00;;;;;;;20.08;100.00;100983.66;6164457;23;20481;-69
2023/08/15 05:07:52;;;;;;;7.85;7.22;;;;;;;20.11;100.00;101004.72;6198692;23;20020;-68
2023/08/15 05:10:18;;;;;;;7.78;6.47;;;;;;;20.15;100.00;101002.63;6169196;23;20095;-68
2023/08/15 05:12:45;;;;;;;7.78;7.18;;;;;;;19.31;100.00;100865.16;6200141;23;20035;-69
2023/08/15 05:15:11;;;;;;;8.02;7.32;;;;;;;20.20;100.00;101003.03;6200854;23;20090;-69
2023/08/15 05:17:38;;;;;;;7.60;6.90;;;;;;;20.21;100.00;101008.25;6201328;23;20242;-68
2023/08/15 05:20:05;;;;;;;7.45;6.95;;;;;;;20.22;100.00;101015.25;6168645;23;20096;-68
2023/08/15 05:22:32;;;;;;;7.40;6.80;;;;;;;20.19;100.00;101020.88;6202520;23;20063;-69
2023/08/15 05:24:59;;;;;;;7.72;7.13;;;;;;;19.83;100.00;100961.81;6197254;23;20677;-68
2023/08/15 05:27:25;;;;;;;7.32;6.72;;;;;;;20.11;100.00;101007.38;6198160;23;19997;-68
2023/08/15 05:29:52;;;;;;;10.93;7.47;;;;;;;20.24;100.00;101023.13;6194062;23;20020;-68
2023/08/15 05:32:18;;;;;;;8.07;7.38;;;;;;;20.16;100.00;101010.47;6152705;23;20036;-68
2023/08/15 05:34:45;;;;;;;8.65;6.97;;;;;;;20.08;100.00;101015.63;6199144;23;20024;-68
2023/08/15 05:37:11;;;;;;;8.45;7.65;;;;;;;19.49;100.00;100918.63;6173613;23;20530;-68
2023/08/15 05:39:38;;;;;;;7.75;7.15;;;;;;;20.32;100.00;101042.78;6199069;23;20544;-68
2023/08/15 05:42:04;;;;;;;8.10;7.50;;;;;;;20.07;100.00;101016.63;6152450;23;20598;-68
2023/08/15 05:44:31;;;;;;;8.95;7.70;;;;;;;20.06;100.00;101020.25;6198262;23;20020;-68
2023/08/15 05:46:58;;;;;;;7.55;6.95;;;;;;;20.42;100.00;101057.97;6172803;23;20145;-68
2023/08/15 05:49:24;;;;;;;7.45;6.90;;;;;;;20.37;100.00;101065.53;6203632;23;20556;-68
2023/08/15 05:51:52;;;;;;;7.25;6.75;;;;;;;20.42;100.00;101056.13;6201016;23;20034;-69
2023/08/15 05:54:19;;;;;;;7.55;6.95;;;;;;;19.69;100.00;100917.72;6199422;23;20660;-68
2023/08/15 05:56:46;;;;;;;7.72;7.13;;;;;;;20.65;100.00;101070.16;6180092;23;20596;-68
2023/08/15 05:59:12;;;;;;;7.70;7.10;;;;;;;20.78;100.00;101063.72;6152117;23;20008;-68
2023/08/15 06:01:39;;;;;;;8.60;7.15;;;;;;;20.80;100.00;101078.59;6208359;23;20016;-68
2023/08/15 06:04:06;;;;;;;7.75;7.22;;;;;;;20.87;100.00;101061.06;6175524;23;20019;-68
2023/08/15 06:06:33;;;;;;;8.25;7.03;;;;;;;21.03;100.00;101057.84;6203884;23;20020;-69
2023/08/15 06:08:59;;;;;;;8.68;7.25;;;;;;;21.10;100.00;101055.47;6184589;23;20076;-68
2023/08/15 06:11:26;;;;;;;7.60;7.00;;;;;;;21.15;100.00;101063.03;6206132;23;20047;-67
2023/08/15 06:13:52;;;;;;;7.95;7.30;;;;;;;20.38;100.00;100933.94;6175013;23;20379;-68
2023/08/15 06:16:19;;;;;;;7.75;7.05;;;;;;;20.53;100.00;100951.22;6211091;23;20111;-68
2023/08/15 06:18:45;;;;;;;8.95;7.13;;;;;;;21.21;100.00;101052.66;6184888;23;20024;-67
2023/08/15 06:21:12;;;;;;;7.85;7.15;;;;;;;21.17;100.00;101050.41;6179140;23;20047;-68
2023/08/15 06:23:39;;;;;;;7.38;6.88;;;;;;;20.97;100.00;101013.06;6200211;23;20135;-68
2023/08/15 06:26:05;;;;;;;7.40;6.90;;;;;;;21.16;100.00;101038.03;6174375;23;20023;-68
2023/08/15 06:28:32;;;;;;;7.70;7.00;;;;;;;21.25;100.00;101034.53;6198611;23;20091;-68
2023/08/15 06:30:58;;;;;;;7.68;7.15;;;;;;;21.30;100.00;101037.63;6169592;23;20067;-69
2023/08/15 06:33:25;;;;;;;8.07;7.47;;;;;;;21.30;100.00;101045.63;6174397;23;20017;-68
2023/08/15 06:35:52;;;;;;;7.93;7.20;;;;;;;21.26;100.00;101025.53;6201288;23;20054;-68
2023/08/15 06:38:19;;;;;;;8.18;7.40;;;;;;;21.15;100.00;101007.84;6196853;23;20459;-69
2023/08/15 06:40:45;;;;;;;7.20;6.50;;;;;;;21.29;100.00;101055.47;6204518;23;20028;-69
2023/08/15 06:43:12;;;;;;;7.45;6.85;;;;;;;21.19;100.00;101054.63;6178443;23;20684;-69
2023/08/15 06:45:41;;;;;;;7.45;6.88;;;;;;;21.09;100.00;101049.28;6203634;23;20520;-69
2023/08/15 06:48:07;;;;;;;8.23;7.35;;;;;;;21.11;100.00;101060.66;6195398;23;20143;-69
2023/08/15 06:50:34;;;;;;;7.75;7.15;;;;;;;20.80;100.00;101006.56;6161894;23;20035;-69
2023/08/15 06:53:00;;;;;;;7.13;6.53;;;;;;;21.10;100.00;101044.78;6197483;23;20552;-69
2023/08/15 06:55:27;;;;;;;8.25;7.20;;;;;;;21.21;100.00;101046.47;6165966;23;20038;-69
2023/08/15 06:57:54;;;;;;;7.85;7.25;;;;;;;21.21;100.00;101033.13;6203833;22;20116;-69
2023/08/15 07:00:20;;;;;;;7.90;7.20;;;;;;;21.16;100.00;101008.69;6197304;23;20114;-69
2023/08/15 07:02:47;;;;;;;7.15;6.55;;;;;;;21.32;100.00;101024.97;6196291;23;20009;-69
2023/08/15 07:05:14;;;;;;;7.40;6.75;;;;;;;21.31;100.00;101028.63;6179735;23;20039;-69
2023/08/15 07:07:41;;;;;;;6.80;6.38;;;;;;;21.10;100.00;100994.91;6159543;23;20450;-68
2023/08/15 07:10:07;;;;;;;6.93;6.43;;;;;;;21.19;100.00;101035.09;6174999;23;20016;-68
2023/08/15 07:12:34;;;;;;;6.25;5.95;;;;;;;20.38;100.00;100876.13;6202579;23;20364;-69
2023/08/15 07:15:01;;;;;;;7.00;6.32;;;;;;;21.23;100.00;101004.47;6201240;23;20159;-69
2023/08/15 07:17:28;;;;;;;6.93;6.45;;;;;;;21.09;100.00;100971.06;6201848;23;21499;-69
2023/08/15 07:19:55;;;;;;;6.55;6.15;;;;;;;20.37;100.00;100834.47;6203377;23;20031;-69
2023/08/15 07:22:22;;;;;;;6.85;6.25;;;;;;;21.21;100.00;100963.72;6200578;23;21218;-68
2023/08/15 07:24:51;;;;;;;6.95;6.45;;;;;;;21.26;100.00;100969.47;6178461;23;20116;-69
2023/08/15 07:27:18;;;;;;;6.65;6.25;;;;;;;21.28;100.00;100979.03;6174773;23;20572;-68
2023/08/15 07:29:44;;;;;;;6.72;6.32;;;;;;;21.40;100.00;100952.16;6198225;23;20077;-69
2023/08/15 07:32:11;;;;;;;6.53;6.10;;;;;;;21.51;100.00;100939.53;6201327;23;20012;-68
2023/08/15 07:34:41;;;;;;;6.88;6.03;;;;;;;21.82;100.00;100944.59;6201228;23;20040;-69
2023/08/15 07:37:08;;;;;;;6.75;6.32;;;;;;;21.90;100.00;100927.84;6174690;23;20695;-69
2023/08/15 07:39:35;;;;;;;6.93;6.40;;;;;;;21.94;100.00;100942.59;6201984;23;20012;-69
2023/08/15 07:42:01;;;;;;;7.22;6.57;;;;;;;22.16;100.00;100933.31;6199584;23;20091;-70
2023/08/15 07:44:28;;;;;;;6.57;6.07;;;;;;;22.19;100.00;100889.41;6174046;23;20705;-68
2023/08/15 07:46:55;;;;;;;7.05;6.38;;;;;;;21.56;100.00;100770.84;6200681;23;20087;-69
2023/08/15 07:49:21;;;;;;;6.60;6.10;;;;;;;22.30;100.00;100866.00;6162695;23;20032;-69
2023/08/15 07:51:48;;;;;;;7.30;6.70;;;;;;;22.46;100.00;100872.50;6178593;23;20494;-69
2023/08/15 07:54:15;;;;;;;7.18;6.57;;;;;;;21.60;100.00;100685.91;6174286;23;20020;-68
2023/08/15 07:56:41;;;;;;;6.63;6.10;;;;;;;21.72;100.00;100690.03;6173440;23;20020;-68
2023/08/15 07:59:08;;;;;;;6.38;5.93;;;;;;;22.58;100.00;100849.03;6201027;23;20071;-69
2023/08/15 08:01:34;;;;;;;6.25;5.85;;;;;;;21.83;100.00;100718.34;6197821;23;20054;-68
2023/08/15 08:04:01;;;;;;;6.65;6.15;;;;;;;22.58;100.00;100831.13;6197902;23;20031;-69
2023/08/15 08:06:28;;;;;;;6.38;5.93;;;;;;;22.52;100.00;100813.03;6181297;23;20019;-69
2023/08/15 08:09:08;;;;;;;6.18;5.63;;;;;;;22.59;100.00;100826.63;6172505;23;20012;-68
2023/08/15 08:11:35;;;;;;;6.47;6.03;;;;;;;22.39;100.00;100783.16;6165962;23;20095;-68
2023/08/15 08:14:03;;;;;;;6.13;5.78;;;;;;;21.87;99.29;100669.81;6167397;23;20203;-69
2023/08/15 08:16:30;;;;;;;6.57;6.07;;;;;;;22.43;98.57;100736.41;6199756;23;20600;-69
2023/08/15 08:18:57;;;;;;;6.82;6.30;;;;;;;22.31;97.64;100695.72;6202207;23;20066;-69
2023/08/15 08:21:23;;;;;;;6.70;6.20;;;;;;;23.06;96.58;100796.88;6170330;23;20066;-69
2023/08/15 08:23:50;;;;;;;8.80;8.40;;;;;;;23.13;96.30;100813.97;6138653;23;20090;-69
2023/08/15 08:26:16;;;;;;;7.00;6.60;;;;;;;23.00;97.74;100789.44;6176181;23;20036;-69
2023/08/15 08:28:43;;;;;;;6.78;6.32;;;;;;;22.96;93.94;100772.03;6197477;23;20509;-69
2023/08/15 08:31:09;;;;;;;6.50;6.05;;;;;;;23.08;93.47;100778.81;6191386;23;20024;-69
2023/08/15 08:33:36;;;;;;;6.45;6.05;;;;;;;22.33;95.12;100674.16;6172046;23;20176;-69
2023/08/15 08:36:02;;;;;;;6.35;5.95;;;;;;;22.78;89.45;100689.97;6198468;23;20678;-68
2023/08/15 08:38:29;;;;;;;6.53;6.10;;;;;;;22.96;90.93;100731.88;6174919;23;20027;-69
2023/08/15 08:40:56;;;;;;;6.35;5.93;;;;;;;23.11;91.37;100746.34;6196677;23;20038;-68
2023/08/15 08:43:22;;;;;;;6.70;6.10;;;;;;;22.38;91.83;100613.03;6193589;23;20036;-68
2023/08/15 08:45:51;;;;;;;6.22;5.90;;;;;;;23.30;89.30;100729.19;6196936;23;20016;-69
2023/08/15 08:48:18;;;;;;;6.40;6.00;;;;;;;22.79;90.67;100677.44;6197324;23;20142;-69
2023/08/15 08:50:48;;;;;;;7.22;6.55;;;;;;;23.50;88.74;100725.25;6179396;23;20112;-69
2023/08/15 08:53:14;;;;;;;7.05;6.55;;;;;;;23.63;86.90;100699.81;6198617;23;20055;-68
2023/08/15 08:55:41;;;;;;;6.47;6.05;;;;;;;23.18;86.58;100644.81;6173963;23;20036;-68
2023/08/15 08:58:11;;;;;;;6.13;5.82;;;;;;;22.80;87.48;100588.97;6194189;23;20343;-68
2023/08/15 09:00:40;;;;;;;6.63;6.05;;;;;;;23.66;86.35;100670.03;6174238;23;20045;-70
2023/08/15 09:03:08;;;;;;;6.65;6.25;;;;;;;24.10;84.63;100701.88;6198014;23;20028;-68
2023/08/15 09:05:34;;;;;;;6.40;5.97;;;;;;;22.87;84.01;100492.81;6173277;23;20260;-69
2023/08/15 09:08:02;;;;;;;6.40;5.97;;;;;;;23.90;83.38;100690.66;6202164;23;20081;-69
2023/08/15 09:10:29;;;;;;;6.70;6.25;;;;;;;23.19;81.72;100523.34;6196519;23;20096;-69
2023/08/15 09:12:58;;;;;;;6.90;6.40;;;;;;;24.25;81.41;100680.56;6173586;23;20396;-68
2023/08/15 09:15:25;;;;;;;6.95;6.38;;;;;;;24.15;82.11;100670.03;6175996;23;20099;-70
2023/08/15 09:17:59;;;;;;;6.63;6.22;;;;;;;24.36;81.48;100672.19;6177517;23;20402;-67
2023/08/15 09:20:26;;;;;;;6.97;6.57;;;;;;;24.46;80.24;100661.25;6199124;23;20031;-68
2023/08/15 09:22:56;;;;;;;7.32;6.65;;;;;;;24.61;81.33;100691.75;6151989;23;20024;-69
2023/08/15 09:25:25;;;;;;;7.40;6.80;;;;;;;24.70;77.49;100625.50;6179101;23;20032;-68
2023/08/15 09:27:53;;;;;;;6.80;6.40;;;;;;;25.05;77.69;100660.88;6204287;23;20115;-68
2023/08/15 09:30:21;;;;;;;7.10;6.50;;;;;;;24.23;75.62;100502.91;6203821;23;20050;-69
2023/08/15 09:32:48;;;;;;;6.82;6.32;;;;;;;25.25;77.67;100688.19;6177573;23;20087;-68
2023/08/15 09:35:17;;;;;;;6.97;6.47;;;;;;;25.36;74.84;100622.44;6207200;23;20064;-69
2023/08/15 09:37:49;;;;;;;6.72;6.32;;;;;;;25.65;72.43;100586.78;6204573;23;20640;-69
2023/08/15 09:40:24;;;;;;;6.28;5.95;;;;;;;25.54;68.66;100477.91;6203976;23;20468;-70
2023/08/15 09:42:54;;;;;;;7.47;6.70;;;;;;;25.35;70.46;100516.84;6172049;23;20048;-68
2023/08/15 09:45:21;;;;;;;6.45;6.05;;;;;;;24.76;69.59;100414.63;6203192;23;20084;-69
2023/08/15 09:47:47;;;;;;;6.90;6.38;;;;;;;25.22;69.63;100532.75;6202057;23;20084;-71
2023/08/15 09:50:15;;;;;;;6.53;6.13;;;;;;;25.44;70.51;100635.84;6202904;23;20573;-69
2023/08/15 09:52:44;;;;;;;7.00;6.40;;;;;;;25.35;71.37;100627.00;6180205;23;20012;-69
2023/08/15 09:55:16;;;;;;;9.13;6.20;;;;;;;25.22;68.50;100538.13;6205392;23;20165;-69
2023/08/15 09:57:44;;;;;;;6.43;6.03;;;;;;;24.69;68.76;100465.47;6203852;23;20076;-69
2023/08/15 10:00:12;;;;;;;6.88;6.38;;;;;;;24.71;70.30;100527.03;6204822;23;20028;-68
2023/08/15 10:02:48;;;;;;;6.25;5.88;;;;;;;25.70;69.90;100667.75;6202592;23;20022;-68
2023/08/15 10:05:20;;;;;;;6.70;6.30;;;;;;;25.52;71.04;100667.19;6205524;23;20020;-67
2023/08/15 10:07:50;;;;;;;6.70;6.07;;;;;;;25.27;69.15;100605.56;6205674;23;20022;-68
2023/08/15 10:10:17;;;;;;;6.75;6.25;;;;;;;24.34;67.53;100410.53;6204340;23;20095;-69
2023/08/15 10:12:45;;;;;;;6.70;6.20;;;;;;;25.00;67.86;100572.81;6174961;23;20023;-70
2023/08/15 10:15:13;;;;;;;6.70;6.30;;;;;;;25.01;70.62;100671.13;6200238;23;20388;-71
2023/08/15 10:17:40;;;;;;;6.70;6.30;;;;;;;24.80;70.23;100630.66;6177114;23;20047;-69
2023/08/15 10:20:10;;;;;;;6.95;6.45;;;;;;;24.21;71.24;100571.97;6200923;23;20594;-68
2023/08/15 10:22:40;;;;;;;6.78;6.28;;;;;;;23.65;70.93;100488.81;6175714;23;20683;-70
2023/08/15 10:25:22;;;;;;;7.93;7.00;;;;;;;23.92;72.61;100596.69;6176778;23;20178;-68
2023/08/15 10:27:51;;;;;;;6.53;6.10;;;;;;;24.52;71.71;100675.88;6201186;23;20032;-67
2023/08/15 10:30:48;;;;;;;6.57;6.18;;;;;;;24.76;71.92;100725.97;6204549;23;20043;-67
2023/08/15 10:33:21;;;;;;;6.95;6.55;;;;;;;24.85;71.53;100704.25;6204325;23;20081;-68
2023/08/15 10:36:06;;;;;;;6.30;6.00;;;;;;;24.10;69.27;100524.94;6202296;23;20079;-68
2023/08/15 10:38:40;;;;;;;7.18;6.32;;;;;;;25.12;70.93;100725.47;6177918;23;20027;-70
2023/08/15 10:41:15;;;;;;;7.07;6.20;;;;;;;25.32;68.91;100662.28;6203994;23;20013;-68
2023/08/15 10:43:48;;;;;;;6.65;6.15;;;;;;;25.44;69.18;100670.78;6198281;23;20007;-68
2023/08/15 10:46:24;;;;;;;6.18;5.80;;;;;;;25.80;65.81;100613.69;6201112;23;20470;-68
2023/08/15 10:48:54;;;;;;;6.88;6.45;;;;;;;26.39;64.98;100656.84;6176553;23;20024;-70
2023/08/15 10:51:29;;;;;;;6.40;6.07;;;;;;;26.50;63.42;100591.00;6197502;23;20032;-70
2023/08/15 10:53:59;;;;;;;6.38;6.03;;;;;;;26.55;62.93;100593.94;6162442;23;20043;-68
2023/08/15 10:56:28;;;;;;;6.38;6.05;;;;;;;25.87;62.40;100456.84;6165457;23;20074;-68
2023/08/15 10:58:55;;;;;;;7.00;6.38;;;;;;;25.78;62.11;100438.31;6172533;23;20087;-68
2023/08/15 11:01:41;;;;;;;6.85;6.25;;;;;;;26.41;62.48;100575.94;6198964;23;20047;-69
2023/08/15 11:04:22;;;;;;;6.68;6.28;;;;;;;25.80;62.54;100479.28;6179237;23;20043;-69
2023/08/15 11:06:57;;;;;;;7.32;6.72;;;;;;;26.45;62.45;100579.94;6184224;23;20057;-69
2023/08/15 11:09:31;;;;;;;6.75;6.32;;;;;;;26.44;62.70;100575.56;6202362;23;20638;-69
2023/08/15 11:12:08;;;;;;;6.72;6.22;;;;;;;26.54;64.09;100673.03;6203163;23;20024;-69
2023/08/15 11:14:37;;;;;;;6.80;6.40;;;;;;;26.64;62.14;100581.22;6200162;23;20571;-69
2023/08/15 11:17:05;;;;;;;6.95;6.55;;;;;;;26.07;61.51;100488.59;6169973;23;20027;-69
2023/08/15 11:19:33;;;;;;;7.22;6.72;;;;;;;26.21;64.09;100642.94;6199303;23;20027;-68
2023/08/15 11:22:00;;;;;;;7.32;6.82;;;;;;;26.85;64.05;100705.16;6174434;23;20072;-69
2023/08/15 11:24:31;;;;;;;6.85;6.45;;;;;;;26.27;61.33;100492.38;6201639;23;20580;-69